Time;durP1;ratioP1;P1;durP2;ratioP2;P2;SDS_P1;SDS_P2;PMS_P1;PMS_P2;Temp;Humidity;BMP_temperature;BMP_pressure;BME280_temperature;BME280_humidity;BME280_pressure;Samples;Min_cycle;Max_cycle;Signal;HPM_P1;HPM_P2
2019/11/17 00:00:05;;;;;;;49.7;27.9;;;;;;;5.07;98.16602;94651.84;;;;
2019/11/17 00:01:08;;;;;;;49.7;27.9;;;;;;;5.07;98.16602;94651.84;;;;
2019/11/17 00:02:09;;;;;;;49.7;27.9;;;;;;;5.07;98.16602;94651.84;;;;
2019/11/17 00:03:10;;;;;;;49.7;27.9;;;;;;;5.07;98.16602;94651.84;;;;
2019/11/17 00:04:11;;;;;;;49.7;27.9;;;;;;;5.07;98.16602;94651.84;;;;
2019/11/17 00:05:12;;;;;;;49.7;27.9;;;;;;;5.07;98.16602;94651.84;;;;
2019/11/17 00:06:13;;;;;;;49.7;27.9;;;;;;;5.07;98.16602;94651.84;;;;
2019/11/17 00:07:14;;;;;;;49.7;27.9;;;;;;;5.07;98.16602;94651.84;;;;
2019/11/17 00:08:16;;;;;;;49.7;27.9;;;;;;;5.07;98.16602;94651.84;;;;
2019/11/17 00:09:17;;;;;;;49.7;27.9;;;;;;;5.07;98.16602;94651.84;;;;
2019/11/17 00:10:18;;;;;;;50.7;28.55;;;;;;;4.98;98.16602;94641.1;;;;
2019/11/17 00:11:19;;;;;;;50.7;28.55;;;;;;;4.98;98.16602;94641.1;;;;
2019/11/17 00:12:20;;;;;;;50.7;28.55;;;;;;;4.98;98.16602;94641.1;;;;
2019/11/17 00:13:22;;;;;;;50.7;28.55;;;;;;;4.98;98.16602;94641.1;;;;
2019/11/17 00:14:23;;;;;;;50.7;28.55;;;;;;;4.98;98.16602;94641.1;;;;
2019/11/17 00:15:24;;;;;;;50.7;28.55;;;;;;;4.98;98.16602;94641.1;;;;
2019/11/17 00:16:25;;;;;;;50.7;28.55;;;;;;;4.98;98.16602;94641.1;;;;
2019/11/17 00:17:26;;;;;;;50.7;28.55;;;;;;;4.98;98.16602;94641.1;;;;
2019/11/17 00:18:27;;;;;;;50.7;28.55;;;;;;;4.98;98.16602;94641.1;;;;
2019/11/17 00:19:28;;;;;;;50.7;28.55;;;;;;;4.98;98.16602;94641.1;;;;
2019/11/17 00:20:30;;;;;;;51.15;29.85;;;;;;;5;98.40039;94632.34;;;;
2019/11/17 00:21:31;;;;;;;51.15;29.85;;;;;;;5;98.40039;94632.34;;;;
2019/11/17 00:22:32;;;;;;;51.15;29.85;;;;;;;5;98.40039;94632.34;;;;
2019/11/17 00:23:33;;;;;;;51.15;29.85;;;;;;;5;98.40039;94632.34;;;;
2019/11/17 00:25:57;;;;;;;51.15;29.85;;;;;;;5;98.40039;94632.34;;;;
2019/11/17 00:26:59;;;;;;;51.15;29.85;;;;;;;5;98.40039;94632.34;;;;
2019/11/17 00:28:00;;;;;;;51.15;29.85;;;;;;;5;98.40039;94632.34;;;;
2019/11/17 00:29:01;;;;;;;51.15;29.85;;;;;;;5;98.40039;94632.34;;;;
2019/11/17 00:30:03;;;;;;;51.15;29.85;;;;;;;5;98.40039;94632.34;;;;
2019/11/17 00:31:04;;;;;;;53.7;29.75;;;;;;;4.93;98.38379;94600.95;;;;
2019/11/17 00:32:06;;;;;;;53.7;29.75;;;;;;;4.93;98.38379;94600.95;;;;
2019/11/17 00:33:07;;;;;;;53.7;29.75;;;;;;;4.93;98.38379;94600.95;;;;
2019/11/17 00:34:08;;;;;;;53.7;29.75;;;;;;;4.93;98.38379;94600.95;;;;
2019/11/17 00:35:09;;;;;;;53.7;29.75;;;;;;;4.93;98.38379;94600.95;;;;
2019/11/17 00:36:10;;;;;;;53.7;29.75;;;;;;;4.93;98.38379;94600.95;;;;
2019/11/17 00:37:31;;;;;;;53.7;29.75;;;;;;;4.93;98.38379;94600.95;;;;
2019/11/17 00:38:32;;;;;;;53.7;29.75;;;;;;;4.93;98.38379;94600.95;;;;
2019/11/17 00:39:33;;;;;;;53.7;29.75;;;;;;;4.93;98.38379;94600.95;;;;
2019/11/17 00:40:34;;;;;;;53.7;29.75;;;;;;;4.93;98.38379;94600.95;;;;
2019/11/17 00:41:35;;;;;;;51.15001;29.55;;;;;;;4.9;98.61035;94579.86;;;;
2019/11/17 00:42:36;;;;;;;51.15001;29.55;;;;;;;4.9;98.61035;94579.86;;;;
2019/11/17 00:43:38;;;;;;;51.15001;29.55;;;;;;;4.9;98.61035;94579.86;;;;
2019/11/17 00:44:39;;;;;;;51.15001;29.55;;;;;;;4.9;98.61035;94579.86;;;;
2019/11/17 00:45:40;;;;;;;51.15001;29.55;;;;;;;4.9;98.61035;94579.86;;;;
2019/11/17 00:46:41;;;;;;;51.15001;29.55;;;;;;;4.9;98.61035;94579.86;;;;
2019/11/17 00:47:42;;;;;;;51.15001;29.55;;;;;;;4.9;98.61035;94579.86;;;;
2019/11/17 00:48:43;;;;;;;51.15001;29.55;;;;;;;4.9;98.61035;94579.86;;;;
2019/11/17 00:49:45;;;;;;;51.15001;29.55;;;;;;;4.9;98.61035;94579.86;;;;
2019/11/17 00:50:46;;;;;;;51.15001;29.55;;;;;;;4.9;98.61035;94579.86;;;;
2019/11/17 00:51:50;;;;;;;51.15001;29.55;;;;;;;4.9;98.61035;94579.86;;;;
2019/11/17 00:52:52;;;;;;;53.2;29.7;;;;;;;4.82;98.6748;94586.81;;;;
2019/11/17 00:53:53;;;;;;;53.2;29.7;;;;;;;4.82;98.6748;94586.81;;;;
2019/11/17 00:54:54;;;;;;;53.2;29.7;;;;;;;4.82;98.6748;94586.81;;;;
2019/11/17 00:55:55;;;;;;;53.2;29.7;;;;;;;4.82;98.6748;94586.81;;;;
2019/11/17 00:56:56;;;;;;;53.2;29.7;;;;;;;4.82;98.6748;94586.81;;;;
2019/11/17 00:57:57;;;;;;;53.2;29.7;;;;;;;4.82;98.6748;94586.81;;;;
2019/11/17 00:58:58;;;;;;;53.2;29.7;;;;;;;4.82;98.6748;94586.81;;;;
2019/11/17 01:00:00;;;;;;;53.2;29.7;;;;;;;4.82;98.6748;94586.81;;;;
2019/11/17 01:01:01;;;;;;;53.2;29.7;;;;;;;4.82;98.6748;94586.81;;;;
2019/11/17 01:02:02;;;;;;;53.2;29.7;;;;;;;4.82;98.6748;94586.81;;;;
2019/11/17 01:03:03;;;;;;;56.7;32.45;;;;;;;4.81;98.85059;94587.86;;;;
2019/11/17 01:04:05;;;;;;;56.7;32.45;;;;;;;4.81;98.85059;94587.86;;;;
2019/11/17 01:05:06;;;;;;;56.7;32.45;;;;;;;4.81;98.85059;94587.86;;;;
2019/11/17 01:06:07;;;;;;;56.7;32.45;;;;;;;4.81;98.85059;94587.86;;;;
2019/11/17 01:07:08;;;;;;;56.7;32.45;;;;;;;4.81;98.85059;94587.86;;;;
2019/11/17 01:08:09;;;;;;;56.7;32.45;;;;;;;4.81;98.85059;94587.86;;;;
2019/11/17 01:09:10;;;;;;;56.7;32.45;;;;;;;4.81;98.85059;94587.86;;;;
2019/11/17 01:10:13;;;;;;;56.7;32.45;;;;;;;4.81;98.85059;94587.86;;;;
2019/11/17 01:11:14;;;;;;;56.7;32.45;;;;;;;4.81;98.85059;94587.86;;;;
2019/11/17 01:12:15;;;;;;;56.7;32.45;;;;;;;4.81;98.85059;94587.86;;;;
2019/11/17 01:13:16;;;;;;;62.6;32.75;;;;;;;4.76;98.8291;94576.08;;;;
2019/11/17 01:14:18;;;;;;;62.6;32.75;;;;;;;4.76;98.8291;94576.08;;;;
2019/11/17 01:15:19;;;;;;;62.6;32.75;;;;;;;4.76;98.8291;94576.08;;;;
2019/11/17 01:16:26;;;;;;;62.6;32.75;;;;;;;4.76;98.8291;94576.08;;;;
2019/11/17 01:17:27;;;;;;;62.6;32.75;;;;;;;4.76;98.8291;94576.08;;;;
2019/11/17 01:18:28;;;;;;;62.6;32.75;;;;;;;4.76;98.8291;94576.08;;;;
2019/11/17 01:19:29;;;;;;;62.6;32.75;;;;;;;4.76;98.8291;94576.08;;;;
2019/11/17 01:20:30;;;;;;;62.6;32.75;;;;;;;4.76;98.8291;94576.08;;;;
2019/11/17 01:21:32;;;;;;;62.6;32.75;;;;;;;4.76;98.8291;94576.08;;;;
2019/11/17 01:22:34;;;;;;;62.6;32.75;;;;;;;4.76;98.8291;94576.08;;;;
2019/11/17 01:23:35;;;;;;;62.6;32.75;;;;;;;4.76;98.8291;94576.08;;;;
2019/11/17 01:24:36;;;;;;;66.6;34.7;;;;;;;4.78;98.97852;94558.06;;;;
2019/11/17 01:25:37;;;;;;;66.6;34.7;;;;;;;4.78;98.97852;94558.06;;;;
2019/11/17 01:26:38;;;;;;;66.6;34.7;;;;;;;4.78;98.97852;94558.06;;;;
2019/11/17 01:27:39;;;;;;;66.6;34.7;;;;;;;4.78;98.97852;94558.06;;;;
2019/11/17 01:28:40;;;;;;;66.6;34.7;;;;;;;4.78;98.97852;94558.06;;;;
2019/11/17 01:29:41;;;;;;;66.6;34.7;;;;;;;4.78;98.97852;94558.06;;;;
2019/11/17 01:30:42;;;;;;;66.6;34.7;;;;;;;4.78;98.97852;94558.06;;;;
2019/11/17 01:31:43;;;;;;;66.6;34.7;;;;;;;4.78;98.97852;94558.06;;;;
2019/11/17 01:32:44;;;;;;;66.6;34.7;;;;;;;4.78;98.97852;94558.06;;;;
2019/11/17 01:33:46;;;;;;;66.6;34.7;;;;;;;4.78;98.97852;94558.06;;;;
2019/11/17 01:34:47;;;;;;;66.9;34.3;;;;;;;4.72;98.88379;94542.78;;;;
2019/11/17 01:35:48;;;;;;;66.9;34.3;;;;;;;4.72;98.88379;94542.78;;;;
2019/11/17 01:36:49;;;;;;;66.9;34.3;;;;;;;4.72;98.88379;94542.78;;;;
2019/11/17 01:37:50;;;;;;;66.9;34.3;;;;;;;4.72;98.88379;94542.78;;;;
2019/11/17 01:38:52;;;;;;;66.9;34.3;;;;;;;4.72;98.88379;94542.78;;;;
2019/11/17 01:40:42;;;;;;;66.9;34.3;;;;;;;4.72;98.88379;94542.78;;;;
2019/11/17 01:41:48;;;;;;;66.9;34.3;;;;;;;4.72;98.88379;94542.78;;;;
2019/11/17 01:42:54;;;;;;;66.9;34.3;;;;;;;4.72;98.88379;94542.78;;;;
2019/11/17 01:43:57;;;;;;;66.9;34.3;;;;;;;4.72;98.88379;94542.78;;;;
2019/11/17 01:45:02;;;;;;;68.25;34.85;;;;;;;4.73;99.10547;94521.68;;;;
2019/11/17 01:46:04;;;;;;;68.25;34.85;;;;;;;4.73;99.10547;94521.68;;;;
2019/11/17 01:47:07;;;;;;;68.25;34.85;;;;;;;4.73;99.10547;94521.68;;;;
2019/11/17 01:48:09;;;;;;;68.25;34.85;;;;;;;4.73;99.10547;94521.68;;;;
2019/11/17 01:49:10;;;;;;;68.25;34.85;;;;;;;4.73;99.10547;94521.68;;;;
2019/11/17 01:50:11;;;;;;;68.25;34.85;;;;;;;4.73;99.10547;94521.68;;;;
2019/11/17 01:51:12;;;;;;;68.25;34.85;;;;;;;4.73;99.10547;94521.68;;;;
2019/11/17 01:52:14;;;;;;;68.25;34.85;;;;;;;4.73;99.10547;94521.68;;;;
2019/11/17 01:53:15;;;;;;;68.25;34.85;;;;;;;4.73;99.10547;94521.68;;;;
2019/11/17 01:54:16;;;;;;;68.25;34.85;;;;;;;4.73;99.10547;94521.68;;;;
2019/11/17 01:55:17;;;;;;;68.25;34.85;;;;;;;4.73;99.10547;94521.68;;;;
2019/11/17 01:56:18;;;;;;;74.25;36.8;;;;;;;4.69;99.12598;94524.11;;;;
2019/11/17 01:57:19;;;;;;;74.25;36.8;;;;;;;4.69;99.12598;94524.11;;;;
2019/11/17 01:58:20;;;;;;;74.25;36.8;;;;;;;4.69;99.12598;94524.11;;;;
2019/11/17 01:59:21;;;;;;;74.25;36.8;;;;;;;4.69;99.12598;94524.11;;;;
2019/11/17 02:00:22;;;;;;;74.25;36.8;;;;;;;4.69;99.12598;94524.11;;;;
2019/11/17 02:01:23;;;;;;;74.25;36.8;;;;;;;4.69;99.12598;94524.11;;;;
2019/11/17 02:02:25;;;;;;;74.25;36.8;;;;;;;4.69;99.12598;94524.11;;;;
2019/11/17 02:03:26;;;;;;;74.25;36.8;;;;;;;4.69;99.12598;94524.11;;;;
2019/11/17 02:04:27;;;;;;;74.25;36.8;;;;;;;4.69;99.12598;94524.11;;;;
2019/11/17 02:05:28;;;;;;;74.25;36.8;;;;;;;4.69;99.12598;94524.11;;;;
2019/11/17 02:06:30;;;;;;;72.8;36.85;;;;;;;4.71;99.32129;94507.71;;;;
2019/11/17 02:07:31;;;;;;;72.8;36.85;;;;;;;4.71;99.32129;94507.71;;;;
2019/11/17 02:08:32;;;;;;;72.8;36.85;;;;;;;4.71;99.32129;94507.71;;;;
2019/11/17 02:09:33;;;;;;;72.8;36.85;;;;;;;4.71;99.32129;94507.71;;;;
2019/11/17 02:10:34;;;;;;;72.8;36.85;;;;;;;4.71;99.32129;94507.71;;;;
2019/11/17 02:11:35;;;;;;;72.8;36.85;;;;;;;4.71;99.32129;94507.71;;;;
2019/11/17 02:12:36;;;;;;;72.8;36.85;;;;;;;4.71;99.32129;94507.71;;;;
2019/11/17 02:13:38;;;;;;;72.8;36.85;;;;;;;4.71;99.32129;94507.71;;;;
2019/11/17 02:14:39;;;;;;;72.8;36.85;;;;;;;4.71;99.32129;94507.71;;;;
2019/11/17 02:15:40;;;;;;;72.8;36.85;;;;;;;4.71;99.32129;94507.71;;;;
2019/11/17 02:16:41;;;;;;;72.8;36.85;;;;;;;4.71;99.32129;94507.71;;;;
2019/11/17 02:17:42;;;;;;;72;34.9;;;;;;;4.66;99.33984;94467.04;;;;
2019/11/17 02:18:44;;;;;;;72;34.9;;;;;;;4.66;99.33984;94467.04;;;;
2019/11/17 02:19:45;;;;;;;72;34.9;;;;;;;4.66;99.33984;94467.04;;;;
2019/11/17 02:20:46;;;;;;;72;34.9;;;;;;;4.66;99.33984;94467.04;;;;
2019/11/17 02:21:47;;;;;;;72;34.9;;;;;;;4.66;99.33984;94467.04;;;;
2019/11/17 02:22:48;;;;;;;72;34.9;;;;;;;4.66;99.33984;94467.04;;;;
2019/11/17 02:23:50;;;;;;;72;34.9;;;;;;;4.66;99.33984;94467.04;;;;
2019/11/17 02:24:51;;;;;;;72;34.9;;;;;;;4.66;99.33984;94467.04;;;;
2019/11/17 02:25:52;;;;;;;72;34.9;;;;;;;4.66;99.33984;94467.04;;;;
2019/11/17 02:26:53;;;;;;;72;34.9;;;;;;;4.66;99.33984;94467.04;;;;
2019/11/17 02:27:54;;;;;;;77.5;36.6;;;;;;;4.7;99.54785;94447.36;;;;
2019/11/17 02:28:55;;;;;;;77.5;36.6;;;;;;;4.7;99.54785;94447.36;;;;
2019/11/17 02:29:57;;;;;;;77.5;36.6;;;;;;;4.7;99.54785;94447.36;;;;
2019/11/17 02:30:58;;;;;;;77.5;36.6;;;;;;;4.7;99.54785;94447.36;;;;
2019/11/17 02:31:59;;;;;;;77.5;36.6;;;;;;;4.7;99.54785;94447.36;;;;
2019/11/17 02:33:00;;;;;;;77.5;36.6;;;;;;;4.7;99.54785;94447.36;;;;
2019/11/17 02:34:01;;;;;;;77.5;36.6;;;;;;;4.7;99.54785;94447.36;;;;
2019/11/17 02:35:03;;;;;;;77.5;36.6;;;;;;;4.7;99.54785;94447.36;;;;
2019/11/17 02:36:08;;;;;;;77.5;36.6;;;;;;;4.7;99.54785;94447.36;;;;
2019/11/17 02:37:13;;;;;;;77.5;36.6;;;;;;;4.7;99.54785;94447.36;;;;
2019/11/17 02:38:54;;;;;;;85.95;37.95;;;;;;;4.65;99.52637;94429.83;;;;
2019/11/17 02:40:01;;;;;;;85.95;37.95;;;;;;;4.65;99.52637;94429.83;;;;
2019/11/17 02:41:03;;;;;;;85.95;37.95;;;;;;;4.65;99.52637;94429.83;;;;
2019/11/17 02:42:05;;;;;;;85.95;37.95;;;;;;;4.65;99.52637;94429.83;;;;
2019/11/17 02:43:06;;;;;;;85.95;37.95;;;;;;;4.65;99.52637;94429.83;;;;
2019/11/17 02:44:07;;;;;;;85.95;37.95;;;;;;;4.65;99.52637;94429.83;;;;
2019/11/17 02:45:08;;;;;;;85.95;37.95;;;;;;;4.65;99.52637;94429.83;;;;
2019/11/17 02:46:09;;;;;;;85.95;37.95;;;;;;;4.65;99.52637;94429.83;;;;
2019/11/17 02:47:10;;;;;;;85.95;37.95;;;;;;;4.65;99.52637;94429.83;;;;
2019/11/17 02:48:11;;;;;;;85.95;37.95;;;;;;;4.65;99.52637;94429.83;;;;
2019/11/17 02:49:13;;;;;;;88.24998;38.85;;;;;;;4.63;99.7334;94391.71;;;;
2019/11/17 02:50:14;;;;;;;88.24998;38.85;;;;;;;4.63;99.7334;94391.71;;;;
2019/11/17 02:51:15;;;;;;;88.24998;38.85;;;;;;;4.63;99.7334;94391.71;;;;
2019/11/17 02:52:16;;;;;;;88.24998;38.85;;;;;;;4.63;99.7334;94391.71;;;;
2019/11/17 02:53:17;;;;;;;88.24998;38.85;;;;;;;4.63;99.7334;94391.71;;;;
2019/11/17 02:54:18;;;;;;;88.24998;38.85;;;;;;;4.63;99.7334;94391.71;;;;
2019/11/17 02:55:20;;;;;;;88.24998;38.85;;;;;;;4.63;99.7334;94391.71;;;;
2019/11/17 02:56:21;;;;;;;88.24998;38.85;;;;;;;4.63;99.7334;94391.71;;;;
2019/11/17 02:57:22;;;;;;;88.24998;38.85;;;;;;;4.63;99.7334;94391.71;;;;
2019/11/17 02:58:24;;;;;;;88.24998;38.85;;;;;;;4.63;99.7334;94391.71;;;;
2019/11/17 02:59:25;;;;;;;88.95;38.50001;;;;;;;4.54;99.95215;94378.34;;;;
2019/11/17 03:00:26;;;;;;;88.95;38.50001;;;;;;;4.54;99.95215;94378.34;;;;
2019/11/17 03:01:27;;;;;;;88.95;38.50001;;;;;;;4.54;99.95215;94378.34;;;;
2019/11/17 03:02:28;;;;;;;88.95;38.50001;;;;;;;4.54;99.95215;94378.34;;;;
2019/11/17 03:03:29;;;;;;;88.95;38.50001;;;;;;;4.54;99.95215;94378.34;;;;
2019/11/17 03:04:30;;;;;;;88.95;38.50001;;;;;;;4.54;99.95215;94378.34;;;;
2019/11/17 03:05:51;;;;;;;88.95;38.50001;;;;;;;4.54;99.95215;94378.34;;;;
2019/11/17 03:06:52;;;;;;;88.95;38.50001;;;;;;;4.54;99.95215;94378.34;;;;
2019/11/17 03:07:53;;;;;;;88.95;38.50001;;;;;;;4.54;99.95215;94378.34;;;;
2019/11/17 03:08:55;;;;;;;88.95;38.50001;;;;;;;4.54;99.95215;94378.34;;;;
2019/11/17 03:09:56;;;;;;;84.80001;37.6;;;;;;;4.54;100;94348.52;;;;
2019/11/17 03:10:58;;;;;;;84.80001;37.6;;;;;;;4.54;100;94348.52;;;;
2019/11/17 03:12:00;;;;;;;84.80001;37.6;;;;;;;4.54;100;94348.52;;;;
2019/11/17 03:13:01;;;;;;;84.80001;37.6;;;;;;;4.54;100;94348.52;;;;
2019/11/17 03:14:02;;;;;;;84.80001;37.6;;;;;;;4.54;100;94348.52;;;;
2019/11/17 03:15:03;;;;;;;84.80001;37.6;;;;;;;4.54;100;94348.52;;;;
2019/11/17 03:16:06;;;;;;;84.80001;37.6;;;;;;;4.54;100;94348.52;;;;
2019/11/17 03:17:07;;;;;;;84.80001;37.6;;;;;;;4.54;100;94348.52;;;;
2019/11/17 03:18:09;;;;;;;84.80001;37.6;;;;;;;4.54;100;94348.52;;;;
2019/11/17 03:19:10;;;;;;;84.80001;37.6;;;;;;;4.54;100;94348.52;;;;
2019/11/17 03:20:11;;;;;;;84.80001;37.6;;;;;;;4.54;100;94348.52;;;;
2019/11/17 03:21:12;;;;;;;91.59999;37.45;;;;;;;4.45;100;94315.52;;;;
2019/11/17 03:22:13;;;;;;;91.59999;37.45;;;;;;;4.45;100;94315.52;;;;
2019/11/17 03:23:15;;;;;;;91.59999;37.45;;;;;;;4.45;100;94315.52;;;;
2019/11/17 03:24:16;;;;;;;91.59999;37.45;;;;;;;4.45;100;94315.52;;;;
2019/11/17 03:25:17;;;;;;;91.59999;37.45;;;;;;;4.45;100;94315.52;;;;
2019/11/17 03:26:18;;;;;;;91.59999;37.45;;;;;;;4.45;100;94315.52;;;;
2019/11/17 03:27:20;;;;;;;91.59999;37.45;;;;;;;4.45;100;94315.52;;;;
2019/11/17 03:28:21;;;;;;;91.59999;37.45;;;;;;;4.45;100;94315.52;;;;
2019/11/17 03:29:22;;;;;;;91.59999;37.45;;;;;;;4.45;100;94315.52;;;;
2019/11/17 03:30:32;;;;;;;91.59999;37.45;;;;;;;4.45;100;94315.52;;;;
2019/11/17 03:31:35;;;;;;;80.59999;34.65;;;;;;;4.45;100;94347.6;;;;
2019/11/17 03:32:36;;;;;;;80.59999;34.65;;;;;;;4.45;100;94347.6;;;;
2019/11/17 03:33:37;;;;;;;80.59999;34.65;;;;;;;4.45;100;94347.6;;;;
2019/11/17 03:34:38;;;;;;;80.59999;34.65;;;;;;;4.45;100;94347.6;;;;
2019/11/17 03:35:39;;;;;;;80.59999;34.65;;;;;;;4.45;100;94347.6;;;;
2019/11/17 03:36:41;;;;;;;80.59999;34.65;;;;;;;4.45;100;94347.6;;;;
2019/11/17 03:37:42;;;;;;;80.59999;34.65;;;;;;;4.45;100;94347.6;;;;
2019/11/17 03:38:43;;;;;;;80.59999;34.65;;;;;;;4.45;100;94347.6;;;;
2019/11/17 03:39:44;;;;;;;80.59999;34.65;;;;;;;4.45;100;94347.6;;;;
2019/11/17 03:40:45;;;;;;;80.59999;34.65;;;;;;;4.45;100;94347.6;;;;
2019/11/17 03:41:51;;;;;;;73.2;32.99999;;;;;;;4.39;100;94352.47;;;;
2019/11/17 03:42:52;;;;;;;73.2;32.99999;;;;;;;4.39;100;94352.47;;;;
2019/11/17 03:43:53;;;;;;;73.2;32.99999;;;;;;;4.39;100;94352.47;;;;
2019/11/17 03:45:41;;;;;;;73.2;32.99999;;;;;;;4.39;100;94352.47;;;;
2019/11/17 03:46:46;;;;;;;73.2;32.99999;;;;;;;4.39;100;94352.47;;;;
2019/11/17 03:48:02;;;;;;;73.2;32.99999;;;;;;;4.39;100;94352.47;;;;
2019/11/17 03:49:17;;;;;;;73.2;32.99999;;;;;;;4.39;100;94352.47;;;;
2019/11/17 03:50:33;;;;;;;73.2;32.99999;;;;;;;4.39;100;94352.47;;;;
2019/11/17 03:51:39;;;;;;;73.2;32.99999;;;;;;;4.39;100;94352.47;;;;
2019/11/17 03:52:58;;;;;;;72.90001;33;;;;;;;4.41;100;94338.89;;;;
2019/11/17 03:54:09;;;;;;;72.90001;33;;;;;;;4.41;100;94338.89;;;;
2019/11/17 03:55:20;;;;;;;72.90001;33;;;;;;;4.41;100;94338.89;;;;
2019/11/17 03:56:22;;;;;;;72.90001;33;;;;;;;4.41;100;94338.89;;;;
2019/11/17 03:58:14;;;;;;;72.90001;33;;;;;;;4.41;100;94338.89;;;;
2019/11/17 03:59:16;;;;;;;72.90001;33;;;;;;;4.41;100;94338.89;;;;
2019/11/17 04:01:07;;;;;;;72.90001;33;;;;;;;4.41;100;94338.89;;;;
2019/11/17 04:02:10;;;;;;;72.90001;33;;;;;;;4.41;100;94338.89;;;;
2019/11/17 04:03:40;;;;;;;78.64999;34.4;;;;;;;4.35;100;94329.89;;;;
2019/11/17 04:05:38;;;;;;;78.64999;34.4;;;;;;;4.35;100;94329.89;;;;
2019/11/17 04:06:43;;;;;;;78.64999;34.4;;;;;;;4.35;100;94329.89;;;;
2019/11/17 04:08:18;;;;;;;78.64999;34.4;;;;;;;4.35;100;94329.89;;;;
2019/11/17 04:10:42;;;;;;;78.64999;34.4;;;;;;;4.35;100;94329.89;;;;
2019/11/17 04:11:58;;;;;;;78.64999;34.4;;;;;;;4.35;100;94329.89;;;;
2019/11/17 04:13:06;;;;;;;78.64999;34.4;;;;;;;4.35;100;94329.89;;;;
2019/11/17 04:14:32;;;;;;;78.49999;34.25;;;;;;;4.38;100;94324.13;;;;
2019/11/17 04:15:34;;;;;;;78.49999;34.25;;;;;;;4.38;100;94324.13;;;;
2019/11/17 04:16:48;;;;;;;78.49999;34.25;;;;;;;4.38;100;94324.13;;;;
2019/11/17 04:18:07;;;;;;;78.49999;34.25;;;;;;;4.38;100;94324.13;;;;
2019/11/17 04:19:20;;;;;;;78.49999;34.25;;;;;;;4.38;100;94324.13;;;;
2019/11/17 04:20:25;;;;;;;78.49999;34.25;;;;;;;4.38;100;94324.13;;;;
2019/11/17 04:21:26;;;;;;;78.49999;34.25;;;;;;;4.38;100;94324.13;;;;
2019/11/17 04:22:28;;;;;;;78.49999;34.25;;;;;;;4.38;100;94324.13;;;;
2019/11/17 04:23:30;;;;;;;78.49999;34.25;;;;;;;4.38;100;94324.13;;;;
2019/11/17 04:24:31;;;;;;;85.8;34.35;;;;;;;4.33;100;94325.31;;;;
2019/11/17 04:25:32;;;;;;;85.8;34.35;;;;;;;4.33;100;94325.31;;;;
2019/11/17 04:26:33;;;;;;;85.8;34.35;;;;;;;4.33;100;94325.31;;;;
2019/11/17 04:27:35;;;;;;;85.8;34.35;;;;;;;4.33;100;94325.31;;;;
2019/11/17 04:28:36;;;;;;;85.8;34.35;;;;;;;4.33;100;94325.31;;;;
2019/11/17 04:29:37;;;;;;;85.8;34.35;;;;;;;4.33;100;94325.31;;;;
2019/11/17 04:30:38;;;;;;;85.8;34.35;;;;;;;4.33;100;94325.31;;;;
2019/11/17 04:31:39;;;;;;;85.8;34.35;;;;;;;4.33;100;94325.31;;;;
2019/11/17 04:32:40;;;;;;;85.8;34.35;;;;;;;4.33;100;94325.31;;;;
2019/11/17 04:33:41;;;;;;;85.8;34.35;;;;;;;4.33;100;94325.31;;;;
2019/11/17 04:34:42;;;;;;;89.84999;35.44999;;;;;;;4.31;100;94277.14;;;;
2019/11/17 04:35:44;;;;;;;89.84999;35.44999;;;;;;;4.31;100;94277.14;;;;
2019/11/17 04:36:48;;;;;;;89.84999;35.44999;;;;;;;4.31;100;94277.14;;;;
2019/11/17 04:37:51;;;;;;;89.84999;35.44999;;;;;;;4.31;100;94277.14;;;;
2019/11/17 04:39:00;;;;;;;89.84999;35.44999;;;;;;;4.31;100;94277.14;;;;
2019/11/17 04:40:06;;;;;;;89.84999;35.44999;;;;;;;4.31;100;94277.14;;;;
2019/11/17 04:41:10;;;;;;;89.84999;35.44999;;;;;;;4.31;100;94277.14;;;;
2019/11/17 04:42:36;;;;;;;89.84999;35.44999;;;;;;;4.31;100;94277.14;;;;
2019/11/17 04:43:56;;;;;;;89.84999;35.44999;;;;;;;4.31;100;94277.14;;;;
2019/11/17 04:45:02;;;;;;;89.84999;35.44999;;;;;;;4.31;100;94277.14;;;;
2019/11/17 04:46:08;;;;;;;88.85001;34.85;;;;;;;4.22;100;94266.35;;;;
2019/11/17 04:47:21;;;;;;;88.85001;34.85;;;;;;;4.22;100;94266.35;;;;
2019/11/17 04:48:30;;;;;;;88.85001;34.85;;;;;;;4.22;100;94266.35;;;;
2019/11/17 04:49:39;;;;;;;88.85001;34.85;;;;;;;4.22;100;94266.35;;;;
2019/11/17 04:50:48;;;;;;;88.85001;34.85;;;;;;;4.22;100;94266.35;;;;
2019/11/17 04:51:52;;;;;;;88.85001;34.85;;;;;;;4.22;100;94266.35;;;;
2019/11/17 04:52:55;;;;;;;88.85001;34.85;;;;;;;4.22;100;94266.35;;;;
2019/11/17 04:53:59;;;;;;;88.85001;34.85;;;;;;;4.22;100;94266.35;;;;
2019/11/17 04:55:01;;;;;;;88.85001;34.85;;;;;;;4.22;100;94266.35;;;;
2019/11/17 04:56:05;;;;;;;88.85001;34.85;;;;;;;4.22;100;94266.35;;;;
2019/11/17 04:57:06;;;;;;;88.85001;34.85;;;;;;;4.22;100;94266.35;;;;
2019/11/17 04:58:10;;;;;;;88.85001;34.85;;;;;;;4.22;100;94266.35;;;;
2019/11/17 04:59:11;;;;;;;88.85001;34.85;;;;;;;4.22;100;94266.35;;;;
2019/11/17 05:00:16;;;;;;;88.85001;34.85;;;;;;;4.22;100;94266.35;;;;
2019/11/17 05:01:19;;;;;;;88.85001;34.85;;;;;;;4.22;100;94266.35;;;;
2019/11/17 05:02:24;;;;;;;88.85001;34.85;;;;;;;4.22;100;94266.35;;;;
2019/11/17 05:03:25;;;;;;;88.85001;34.85;;;;;;;4.22;100;94266.35;;;;
2019/11/17 05:04:31;;;;;;;88.85001;34.85;;;;;;;4.22;100;94266.35;;;;
2019/11/17 05:05:32;;;;;;;88.85001;34.85;;;;;;;4.22;100;94266.35;;;;
2019/11/17 05:06:35;;;;;;;88.85001;34.85;;;;;;;4.22;100;94266.35;;;;
2019/11/17 05:07:36;;;;;;;96.3;35.3;;;;;;;4.28;100;94216.94;;;;
2019/11/17 05:08:38;;;;;;;96.3;35.3;;;;;;;4.28;100;94216.94;;;;
2019/11/17 05:09:39;;;;;;;96.3;35.3;;;;;;;4.28;100;94216.94;;;;
2019/11/17 05:10:40;;;;;;;96.3;35.3;;;;;;;4.28;100;94216.94;;;;
2019/11/17 05:11:41;;;;;;;96.3;35.3;;;;;;;4.28;100;94216.94;;;;
2019/11/17 05:12:42;;;;;;;96.3;35.3;;;;;;;4.28;100;94216.94;;;;
2019/11/17 05:13:43;;;;;;;96.3;35.3;;;;;;;4.28;100;94216.94;;;;
2019/11/17 05:14:45;;;;;;;96.3;35.3;;;;;;;4.28;100;94216.94;;;;
2019/11/17 05:15:46;;;;;;;96.3;35.3;;;;;;;4.28;100;94216.94;;;;
2019/11/17 05:16:47;;;;;;;96.3;35.3;;;;;;;4.28;100;94216.94;;;;
2019/11/17 05:17:48;;;;;;;88.05;35.25;;;;;;;4.29;100;94220.84;;;;
2019/11/17 05:18:49;;;;;;;88.05;35.25;;;;;;;4.29;100;94220.84;;;;
2019/11/17 05:19:50;;;;;;;88.05;35.25;;;;;;;4.29;100;94220.84;;;;
2019/11/17 05:20:51;;;;;;;88.05;35.25;;;;;;;4.29;100;94220.84;;;;
2019/11/17 05:21:52;;;;;;;88.05;35.25;;;;;;;4.29;100;94220.84;;;;
2019/11/17 05:22:54;;;;;;;88.05;35.25;;;;;;;4.29;100;94220.84;;;;
2019/11/17 05:23:55;;;;;;;88.05;35.25;;;;;;;4.29;100;94220.84;;;;
2019/11/17 05:24:56;;;;;;;88.05;35.25;;;;;;;4.29;100;94220.84;;;;
2019/11/17 05:25:57;;;;;;;88.05;35.25;;;;;;;4.29;100;94220.84;;;;
2019/11/17 05:26:58;;;;;;;88.05;35.25;;;;;;;4.29;100;94220.84;;;;
2019/11/17 05:28:00;;;;;;;88.05;35.25;;;;;;;4.29;100;94220.84;;;;
2019/11/17 05:29:01;;;;;;;88.05;35.25;;;;;;;4.29;100;94220.84;;;;
2019/11/17 05:30:02;;;;;;;88.05;35.25;;;;;;;4.29;100;94220.84;;;;
2019/11/17 05:31:03;;;;;;;88.05;35.25;;;;;;;4.29;100;94220.84;;;;
2019/11/17 05:32:04;;;;;;;88.05;35.25;;;;;;;4.29;100;94220.84;;;;
2019/11/17 05:33:05;;;;;;;88.05;35.25;;;;;;;4.29;100;94220.84;;;;
2019/11/17 05:34:07;;;;;;;88.05;35.25;;;;;;;4.29;100;94220.84;;;;
2019/11/17 05:35:08;;;;;;;88.05;35.25;;;;;;;4.29;100;94220.84;;;;
2019/11/17 05:36:09;;;;;;;88.05;35.25;;;;;;;4.29;100;94220.84;;;;
2019/11/17 05:37:10;;;;;;;88.05;35.25;;;;;;;4.29;100;94220.84;;;;
2019/11/17 05:38:11;;;;;;;88.05;35.25;;;;;;;4.29;100;94220.84;;;;
2019/11/17 05:39:13;;;;;;;87.74999;34.25;;;;;;;4.38;100;94226.59;;;;
2019/11/17 05:40:14;;;;;;;87.74999;34.25;;;;;;;4.38;100;94226.59;;;;
2019/11/17 05:41:15;;;;;;;87.74999;34.25;;;;;;;4.38;100;94226.59;;;;
2019/11/17 05:42:16;;;;;;;87.74999;34.25;;;;;;;4.38;100;94226.59;;;;
2019/11/17 05:43:17;;;;;;;87.74999;34.25;;;;;;;4.38;100;94226.59;;;;
2019/11/17 05:44:18;;;;;;;87.74999;34.25;;;;;;;4.38;100;94226.59;;;;
2019/11/17 05:45:19;;;;;;;87.74999;34.25;;;;;;;4.38;100;94226.59;;;;
2019/11/17 05:46:21;;;;;;;87.74999;34.25;;;;;;;4.38;100;94226.59;;;;
2019/11/17 05:47:22;;;;;;;87.74999;34.25;;;;;;;4.38;100;94226.59;;;;
2019/11/17 05:48:23;;;;;;;87.74999;34.25;;;;;;;4.38;100;94226.59;;;;
2019/11/17 05:49:24;;;;;;;95.89999;35.7;;;;;;;4.34;100;94215.23;;;;
2019/11/17 05:50:25;;;;;;;95.89999;35.7;;;;;;;4.34;100;94215.23;;;;
2019/11/17 05:51:26;;;;;;;95.89999;35.7;;;;;;;4.34;100;94215.23;;;;
2019/11/17 05:52:27;;;;;;;95.89999;35.7;;;;;;;4.34;100;94215.23;;;;
2019/11/17 05:53:29;;;;;;;95.89999;35.7;;;;;;;4.34;100;94215.23;;;;
2019/11/17 05:54:30;;;;;;;95.89999;35.7;;;;;;;4.34;100;94215.23;;;;
2019/11/17 05:55:31;;;;;;;95.89999;35.7;;;;;;;4.34;100;94215.23;;;;
2019/11/17 05:56:32;;;;;;;95.89999;35.7;;;;;;;4.34;100;94215.23;;;;
2019/11/17 05:57:33;;;;;;;95.89999;35.7;;;;;;;4.34;100;94215.23;;;;
2019/11/17 05:58:34;;;;;;;95.89999;35.7;;;;;;;4.34;100;94215.23;;;;
2019/11/17 05:59:35;;;;;;;95.89999;35.7;;;;;;;4.34;100;94215.23;;;;
2019/11/17 06:00:36;;;;;;;96.50002;36.8;;;;;;;4.38;100;94162.05;;;;
2019/11/17 06:01:37;;;;;;;96.50002;36.8;;;;;;;4.38;100;94162.05;;;;
2019/11/17 06:02:39;;;;;;;96.50002;36.8;;;;;;;4.38;100;94162.05;;;;
2019/11/17 06:03:40;;;;;;;96.50002;36.8;;;;;;;4.38;100;94162.05;;;;
2019/11/17 06:04:41;;;;;;;96.50002;36.8;;;;;;;4.38;100;94162.05;;;;
2019/11/17 06:05:42;;;;;;;96.50002;36.8;;;;;;;4.38;100;94162.05;;;;
2019/11/17 06:06:43;;;;;;;96.50002;36.8;;;;;;;4.38;100;94162.05;;;;